createdAt,value
2022-08-09T00:02:08.456Z,35.18
2022-08-09T00:05:02.947Z,35.10
2022-08-09T00:08:01.499Z,35.32
2022-08-09T00:10:47.422Z,35.04
2022-08-09T00:13:33.307Z,35.26
2022-08-09T00:16:26.050Z,35.31
2022-08-09T00:19:12.692Z,35.15
2022-08-09T00:21:58.459Z,35.27
2022-08-09T00:24:44.860Z,35.41
2022-08-09T00:27:36.221Z,35.43
2022-08-09T00:30:28.737Z,35.49
2022-08-09T00:33:14.569Z,35.60
2022-08-09T00:36:01.023Z,35.73
2022-08-09T00:38:51.206Z,35.46
2022-08-09T00:44:10.556Z,35.59
2022-08-09T00:44:44.014Z,35.53
2022-08-09T00:47:35.963Z,35.61
2022-08-09T00:50:26.261Z,35.69
2022-08-09T00:53:14.680Z,35.91
2022-08-09T00:56:05.690Z,35.87
2022-08-09T00:58:55.978Z,36.08
2022-08-09T01:01:45.315Z,36.05
2022-08-09T01:05:57.117Z,36.13
2022-08-09T01:08:55.863Z,36.17
2022-08-09T01:12:42.598Z,36.26
2022-08-09T01:15:31.608Z,35.94
2022-08-09T01:18:30.459Z,35.85
2022-08-09T01:21:19.782Z,36.20
2022-08-09T01:24:39.127Z,36.37
2022-08-09T01:27:25.099Z,36.39
2022-08-09T01:30:28.551Z,36.12
2022-08-09T01:33:18.523Z,36.32
2022-08-09T01:36:07.840Z,36.41
2022-08-09T01:38:54.141Z,36.42
2022-08-09T01:41:55.598Z,36.46
2022-08-09T01:44:48.740Z,36.39
2022-08-09T01:47:44.502Z,36.24
2022-08-09T01:50:37.243Z,36.64
2022-08-09T01:53:29.328Z,36.51
2022-08-09T01:56:29.273Z,36.56
2022-08-09T01:59:18.710Z,36.73
2022-08-09T02:02:05.926Z,36.72
2022-08-09T02:04:52.425Z,36.87
2022-08-09T02:08:38.748Z,36.77
2022-08-09T02:10:51.872Z,36.85
2022-08-09T02:13:40.581Z,36.78
2022-08-09T02:16:33.622Z,36.59
2022-08-09T02:19:39.184Z,37.05
2022-08-09T02:22:35.921Z,37.06
2022-08-09T02:25:25.713Z,36.84
2022-08-09T02:28:17.859Z,37.01
2022-08-09T02:31:08.061Z,37.09
2022-08-09T02:34:07.393Z,37.44
2022-08-09T02:37:02.196Z,37.38
2022-08-09T02:40:01.518Z,37.42
2022-08-09T02:42:51.583Z,37.24
2022-08-09T02:45:42.782Z,37.45
2022-08-09T02:48:31.757Z,37.52
2022-08-09T02:51:18.669Z,37.64
2022-08-09T02:54:06.822Z,37.56
2022-08-09T02:56:57.146Z,37.66
2022-08-09T03:00:11.460Z,37.84
2022-08-09T03:02:59.690Z,38.15
2022-08-09T03:05:47.061Z,37.88
2022-08-09T03:08:34.160Z,38.17
2022-08-09T03:11:29.917Z,38.05
2022-08-09T03:14:31.978Z,38.19
2022-08-09T03:17:20.402Z,38.06
2022-08-09T03:20:11.162Z,38.13
2022-08-09T03:23:13.731Z,38.40
2022-08-09T03:26:04.754Z,38.31
2022-08-09T03:28:55.334Z,38.42
2022-08-09T03:31:42.768Z,38.59
2022-08-09T03:34:48.211Z,38.57
2022-08-09T03:37:55.317Z,38.76
2022-08-09T03:40:43.978Z,39.82
2022-08-09T03:43:31.581Z,38.75
2022-08-09T03:46:27.283Z,39.18
2022-08-09T03:49:19.134Z,39.00
2022-08-09T03:52:07.457Z,39.19
2022-08-09T03:54:54.507Z,39.15
2022-08-09T03:57:44.682Z,39.35
2022-08-09T04:00:42.132Z,39.28
2022-08-09T04:03:45.922Z,39.63
2022-08-09T04:06:36.539Z,39.20
2022-08-09T04:09:47.636Z,39.43
2022-08-09T04:12:50.857Z,39.41
2022-08-09T04:16:17.155Z,39.45
2022-08-09T04:18:44.123Z,39.69
2022-08-09T04:21:31.578Z,39.66
2022-08-09T04:24:26.973Z,39.65
2022-08-09T04:27:12.915Z,39.84
2022-08-09T04:30:00.823Z,39.95
2022-08-09T04:32:48.148Z,40.13
2022-08-09T04:35:34.005Z,39.97
2022-08-09T04:38:20.203Z,40.14
2022-08-09T04:41:07.048Z,40.26
2022-08-09T04:44:06.289Z,40.39
2022-08-09T04:46:58.786Z,40.21
2022-08-09T04:49:54.384Z,40.47
2022-08-09T04:52:42.199Z,40.63
2022-08-09T04:55:32.400Z,40.52
2022-08-09T04:58:27.977Z,40.31
2022-08-09T05:01:16.346Z,40.60
2022-08-09T05:04:04.921Z,40.24
2022-08-09T05:06:51.321Z,40.49
2022-08-09T05:09:42.115Z,40.72
2022-08-09T05:12:32.972Z,40.74
2022-08-09T05:15:38.560Z,40.81
2022-08-09T05:18:38.563Z,40.84
2022-08-09T05:21:47.037Z,40.90
2022-08-09T05:24:41.623Z,40.80
2022-08-09T05:27:27.695Z,40.84
2022-08-09T05:30:19.380Z,40.81
2022-08-09T05:33:05.669Z,40.91
2022-08-09T05:35:57.233Z,40.99
2022-08-09T05:38:43.248Z,41.11
2022-08-09T05:41:48.421Z,41.33
2022-08-09T05:44:36.831Z,40.89
2022-08-09T05:47:30.336Z,41.21
2022-08-09T05:50:29.895Z,40.97
2022-08-09T05:53:32.085Z,41.29
2022-08-09T05:56:30.463Z,41.45
2022-08-09T05:59:16.219Z,41.02
2022-08-09T06:02:02.468Z,41.57
2022-08-09T06:04:48.563Z,41.18
2022-08-09T06:07:35.364Z,41.44
2022-08-09T06:10:21.454Z,41.37
2022-08-09T06:13:18.254Z,41.41
2022-08-09T06:16:11.023Z,41.29
2022-08-09T06:18:59.825Z,41.39
2022-08-09T06:21:51.455Z,41.58
2022-08-09T06:24:44.845Z,41.59
2022-08-09T06:27:42.981Z,41.28
2022-08-09T06:30:38.067Z,41.49
2022-08-09T06:33:40.956Z,41.52
2022-08-09T06:36:32.864Z,41.47
2022-08-09T06:39:19.214Z,41.43
2022-08-09T06:42:08.941Z,41.68
2022-08-09T06:44:58.844Z,41.51
2022-08-09T06:47:45.354Z,41.46
2022-08-09T06:50:31.928Z,41.57
2022-08-09T06:53:18.106Z,41.45
2022-08-09T06:56:07.877Z,41.35
2022-08-09T07:00:54.166Z,41.09
2022-08-09T07:02:11.005Z,41.31
2022-08-09T07:04:57.334Z,41.15
2022-08-09T07:08:00.986Z,41.14
2022-08-09T07:10:48.548Z,40.98
2022-08-09T07:13:44.986Z,41.15
2022-08-09T07:16:49.060Z,41.29
2022-08-09T07:19:57.369Z,41.24
2022-08-09T07:22:50.981Z,41.07
2022-08-09T07:25:43.406Z,41.25
2022-08-09T07:28:30.972Z,41.13
2022-08-09T07:31:24.089Z,41.17
2022-08-09T07:34:32.615Z,41.69
2022-08-09T07:37:19.667Z,41.00
2022-08-09T07:40:08.859Z,41.25
2022-08-09T07:43:00.445Z,41.05
2022-08-09T07:45:48.319Z,41.33
2022-08-09T07:48:39.391Z,41.07
2022-08-09T07:52:04.715Z,41.22
2022-08-09T07:54:31.830Z,41.22
2022-08-09T07:57:18.030Z,41.31
2022-08-09T08:00:08.912Z,40.88
2022-08-09T08:03:13.746Z,41.06
2022-08-09T08:05:59.692Z,40.81
2022-08-09T08:09:03.625Z,40.77
2022-08-09T08:12:28.288Z,40.56
2022-08-09T08:15:37.566Z,40.67
2022-08-09T08:18:55.615Z,40.83
2022-08-09T08:21:41.481Z,40.64
2022-08-09T08:24:49.008Z,40.58
2022-08-09T08:27:40.399Z,40.52
2022-08-09T08:30:27.295Z,40.38
2022-08-09T08:33:24.409Z,40.34
2022-08-09T08:36:10.765Z,40.38
2022-08-09T08:38:56.813Z,40.22
2022-08-09T08:41:51.852Z,40.09
2022-08-09T08:44:42.475Z,39.76
2022-08-09T08:47:31.857Z,39.81
2022-08-09T08:50:27.808Z,39.84
2022-08-09T08:53:16.124Z,39.91
2022-08-09T08:56:16.871Z,39.80
2022-08-09T08:59:19.427Z,39.53
2022-08-09T09:02:08.632Z,39.60
2022-08-09T09:05:06.209Z,39.39
2022-08-09T09:08:03.728Z,39.60
2022-08-09T09:10:49.804Z,39.26
2022-08-09T09:13:54.761Z,39.15
2022-08-09T09:16:47.241Z,39.39
2022-08-09T09:20:10.841Z,39.34
2022-08-09T09:23:02.065Z,39.33
2022-08-09T09:26:05.035Z,39.08
2022-08-09T09:29:04.177Z,39.17
2022-08-09T09:32:15.411Z,39.05
2022-08-09T09:35:09.940Z,38.88
2022-08-09T09:37:55.801Z,38.74
2022-08-09T09:40:46.288Z,38.46
2022-08-09T09:44:10.888Z,38.86
2022-08-09T09:46:50.773Z,38.94
2022-08-09T09:50:13.492Z,38.83
2022-08-09T09:52:56.390Z,38.65
2022-08-09T09:56:04.227Z,38.52
2022-08-09T09:58:53.514Z,38.36
2022-08-09T10:01:43.280Z,38.64
2022-08-09T10:04:30.969Z,38.34
2022-08-09T10:07:27.616Z,38.26
2022-08-09T10:10:31.517Z,38.47
2022-08-09T10:13:23.112Z,38.53
2022-08-09T10:16:58.072Z,38.35
2022-08-09T10:19:53.042Z,38.68
2022-08-09T10:22:43.769Z,38.40
2022-08-09T10:25:34.822Z,38.17
2022-08-09T10:28:41.343Z,38.61
2022-08-09T10:34:35.825Z,38.35
2022-08-09T10:37:22.350Z,38.29
2022-08-09T10:40:12.244Z,38.75
2022-08-09T10:43:16.258Z,38.88
2022-08-09T10:46:26.746Z,44.43
2022-08-09T10:49:51.849Z,40.72
2022-08-09T10:53:10.726Z,40.61
2022-08-09T10:56:23.015Z,40.82
2022-08-09T10:59:31.205Z,40.40
2022-08-09T11:03:07.426Z,40.12
2022-08-09T11:06:26.099Z,40.05
2022-08-09T11:09:15.779Z,39.64
2022-08-09T11:12:17.054Z,38.91
2022-08-09T11:15:19.259Z,38.48
2022-08-09T11:18:05.313Z,38.53
2022-08-09T11:20:52.901Z,38.28
2022-08-09T11:24:01.793Z,38.15
2022-08-09T11:26:54.966Z,38.38
2022-08-09T11:30:00.716Z,37.80
2022-08-09T11:33:20.501Z,38.08
2022-08-09T11:36:08.576Z,38.26
2022-08-09T11:39:02.750Z,38.38
2022-08-09T11:41:49.739Z,38.54
2022-08-09T11:44:48.492Z,39.52
2022-08-09T11:47:47.869Z,40.34
2022-08-09T11:52:49.523Z,39.33
2022-08-09T11:54:33.240Z,39.04
2022-08-09T11:57:59.849Z,39.82
2022-08-09T12:01:03.072Z,38.94
2022-08-09T12:04:03.056Z,38.60
2022-08-09T12:06:56.632Z,38.28
2022-08-09T12:09:51.080Z,38.20
2022-08-09T12:12:52.899Z,38.91
2022-08-09T12:15:48.566Z,38.15
2022-08-09T12:18:38.978Z,38.29
2022-08-09T12:21:32.521Z,38.37
2022-08-09T12:24:25.293Z,38.28
2022-08-09T12:29:12.074Z,38.44
2022-08-09T12:30:38.827Z,37.78
2022-08-09T12:33:35.439Z,37.69
2022-08-09T12:36:34.091Z,37.58
2022-08-09T12:39:22.644Z,37.33
2022-08-09T12:42:16.386Z,37.11
2022-08-09T12:45:07.017Z,37.27
2022-08-09T12:48:27.827Z,37.16
2022-08-09T12:51:30.377Z,36.62
2022-08-09T12:54:26.286Z,36.19
2022-08-09T12:57:12.265Z,35.44
2022-08-09T13:00:18.398Z,34.51
2022-08-09T13:03:06.446Z,35.07
2022-08-09T13:06:14.286Z,34.75
2022-08-09T13:09:06.577Z,34.30
2022-08-09T13:12:01.835Z,33.76
2022-08-09T13:14:53.742Z,33.64
2022-08-09T13:18:02.436Z,33.07
2022-08-09T13:21:20.439Z,32.10
2022-08-09T13:24:42.151Z,31.46
2022-08-09T13:27:39.431Z,31.08
2022-08-09T13:30:50.969Z,31.16
2022-08-09T13:33:52.201Z,30.56
2022-08-09T13:36:43.175Z,29.24
2022-08-09T13:41:19.428Z,28.40
2022-08-09T13:42:36.434Z,27.99
2022-08-09T13:45:22.351Z,27.29
2022-08-09T13:48:19.240Z,26.73
2022-08-09T13:51:05.514Z,26.11
2022-08-09T13:53:55.524Z,25.82
2022-08-09T13:56:41.921Z,25.58
2022-08-09T13:59:41.839Z,25.37
2022-08-09T14:02:28.505Z,25.42
2022-08-09T14:05:59.859Z,25.24
2022-08-09T14:08:21.619Z,25.06
2022-08-09T14:11:09.962Z,24.97
2022-08-09T14:14:23.075Z,24.48
2022-08-09T14:17:09.136Z,24.24
2022-08-09T14:20:00.580Z,24.07
2022-08-09T14:22:49.840Z,23.71
2022-08-09T14:25:42.915Z,23.73
2022-08-09T14:28:29.284Z,23.67
2022-08-09T14:31:17.815Z,23.83
2022-08-09T14:34:09.817Z,23.48
2022-08-09T14:36:56.001Z,23.67
2022-08-09T14:39:47.987Z,23.96
2022-08-09T14:42:34.632Z,24.53
2022-08-09T14:46:58.275Z,24.41
2022-08-09T14:48:26.935Z,24.58
2022-08-09T14:51:13.271Z,24.75
2022-08-09T14:53:59.711Z,24.96
2022-08-09T14:56:58.289Z,25.17
2022-08-09T14:59:48.534Z,25.59
2022-08-09T15:02:34.927Z,26.05
2022-08-09T15:05:21.529Z,26.31
2022-08-09T15:08:10.252Z,26.84
2022-08-09T15:11:00.542Z,27.23
2022-08-09T15:14:01.501Z,27.16
2022-08-09T15:16:57.157Z,28.09
2022-08-09T15:19:59.647Z,28.37
2022-08-09T15:22:48.837Z,28.23
2022-08-09T15:25:55.682Z,28.50
2022-08-09T15:28:42.149Z,28.67
2022-08-09T15:31:42.004Z,28.61
2022-08-09T15:34:34.595Z,29.01
2022-08-09T15:38:04.005Z,28.80
2022-08-09T15:40:44.195Z,28.56
2022-08-09T15:43:37.177Z,28.01
2022-08-09T15:46:32.565Z,28.01
2022-08-09T15:49:22.501Z,27.78
2022-08-09T15:52:09.478Z,27.84
2022-08-09T15:54:58.287Z,27.81
2022-08-09T15:57:51.151Z,27.75
2022-08-09T16:00:37.748Z,27.86
2022-08-09T16:03:29.718Z,27.71
2022-08-09T16:06:34.999Z,27.82
2022-08-09T16:09:51.611Z,28.00
2022-08-09T16:12:31.069Z,27.48
2022-08-09T16:16:04.504Z,27.37
2022-08-09T16:18:23.608Z,27.41
2022-08-09T16:21:09.730Z,27.66
2022-08-09T16:23:58.698Z,27.45
2022-08-09T16:26:48.983Z,27.89
2022-08-09T16:29:36.913Z,27.74
2022-08-09T16:32:49.757Z,27.77
2022-08-09T16:35:56.035Z,27.46
2022-08-09T16:38:45.004Z,27.40
2022-08-09T16:42:02.304Z,27.24
2022-08-09T16:44:43.398Z,27.45
2022-08-09T16:48:42.026Z,27.56
2022-08-09T16:50:38.479Z,27.45
2022-08-09T16:53:24.657Z,27.55
2022-08-09T16:56:18.662Z,27.83
2022-08-09T16:59:11.313Z,28.02
2022-08-09T17:01:57.945Z,28.06
2022-08-09T17:04:45.602Z,28.12
2022-08-09T17:08:43.455Z,28.22
2022-08-09T17:10:38.457Z,28.43
2022-08-09T17:13:24.439Z,28.57
2022-08-09T17:16:20.164Z,28.62
2022-08-09T17:19:06.569Z,28.83
2022-08-09T17:21:57.121Z,29.14
2022-08-09T17:24:47.707Z,29.37
2022-08-09T17:27:49.168Z,29.98
2022-08-09T17:30:39.983Z,29.94
2022-08-09T17:33:35.949Z,30.36
2022-08-09T17:36:24.582Z,30.59
2022-08-09T17:39:14.537Z,30.99
2022-08-09T17:42:01.355Z,31.32
2022-08-09T17:44:49.442Z,31.33
2022-08-09T17:47:49.700Z,31.95
2022-08-09T17:50:41.380Z,32.06
2022-08-09T17:53:42.834Z,32.59
2022-08-09T17:56:35.582Z,32.71
2022-08-09T17:59:22.234Z,32.83
2022-08-09T18:02:21.499Z,32.88
2022-08-09T18:05:13.064Z,33.17
2022-08-09T18:07:59.295Z,33.33
2022-08-09T18:10:46.251Z,33.28
2022-08-09T18:14:00.475Z,33.66
2022-08-09T18:16:53.076Z,33.88
2022-08-09T18:20:56.207Z,34.21
2022-08-09T18:22:51.201Z,34.24
2022-08-09T18:25:50.389Z,34.76
2022-08-09T18:30:42.019Z,35.04
2022-08-09T18:31:55.815Z,35.12
2022-08-09T18:34:43.566Z,35.37
2022-08-09T18:37:48.785Z,35.78
2022-08-09T18:40:35.802Z,35.88
2022-08-09T18:43:23.610Z,35.97
2022-08-09T18:46:47.134Z,36.09
2022-08-09T18:49:15.732Z,36.26
2022-08-09T18:52:04.644Z,36.79
2022-08-09T18:54:52.425Z,36.67
2022-08-09T18:57:43.449Z,37.17
2022-08-09T19:00:30.744Z,36.86
2022-08-09T19:03:16.438Z,37.36
2022-08-09T19:06:04.835Z,37.23
2022-08-09T19:08:55.450Z,37.51
2022-08-09T19:11:50.024Z,37.42
2022-08-09T19:14:36.333Z,37.41
2022-08-09T19:17:22.389Z,37.72
2022-08-09T19:20:09.727Z,37.55
2022-08-09T19:22:55.888Z,37.51
2022-08-09T19:26:02.373Z,37.88
2022-08-09T19:28:48.790Z,37.99
2022-08-09T19:31:45.515Z,38.19
2022-08-09T19:34:37.954Z,38.64
2022-08-09T19:37:27.321Z,38.67
2022-08-09T19:40:19.226Z,38.88
2022-08-09T19:43:10.221Z,39.05
2022-08-09T19:46:02.215Z,39.31
2022-08-09T19:49:02.433Z,39.28
2022-08-09T19:51:57.178Z,39.56
2022-08-09T19:54:43.205Z,39.73
2022-08-09T19:57:29.275Z,39.97
2022-08-09T20:00:15.751Z,40.37
2022-08-09T20:04:27.869Z,40.49
2022-08-09T20:06:10.575Z,40.41
2022-08-09T20:09:44.991Z,40.66
2022-08-09T20:12:36.254Z,40.71
2022-08-09T20:16:36.656Z,40.69
2022-08-09T20:18:31.407Z,40.68
2022-08-09T20:21:17.543Z,40.78
2022-08-09T20:24:08.142Z,40.65
2022-08-09T20:26:56.286Z,40.90
2022-08-09T20:29:44.147Z,40.82
2022-08-09T20:32:45.493Z,40.86
2022-08-09T20:35:35.789Z,40.72
2022-08-09T20:38:33.990Z,41.03
2022-08-09T20:41:34.883Z,40.95
2022-08-09T20:44:26.874Z,40.81
2022-08-09T20:47:16.291Z,40.93
2022-08-09T20:50:47.495Z,41.30
2022-08-09T20:53:35.291Z,41.21
2022-08-09T20:56:26.212Z,41.31
2022-08-09T20:59:12.036Z,41.19
2022-08-09T21:02:02.726Z,41.20
2022-08-09T21:05:56.925Z,41.28
2022-08-09T21:08:00.224Z,41.31
2022-08-09T21:10:53.193Z,41.16
2022-08-09T21:13:58.044Z,41.22
2022-08-09T21:16:46.221Z,41.16
2022-08-09T21:20:18.592Z,41.19
2022-08-09T21:22:42.161Z,41.38
2022-08-09T21:25:56.364Z,41.28
2022-08-09T21:28:55.956Z,41.35
2022-08-09T21:31:48.579Z,41.30
2022-08-09T21:34:35.852Z,41.49
2022-08-09T21:37:23.169Z,41.46
2022-08-09T21:40:10.940Z,41.39
2022-08-09T21:42:58.835Z,41.45
2022-08-09T21:45:45.000Z,41.53
2022-08-09T21:48:31.081Z,41.48
2022-08-09T21:51:24.443Z,41.66
2022-08-09T21:54:24.310Z,41.67
2022-08-09T21:57:36.882Z,41.65
2022-08-09T22:00:32.642Z,41.73
2022-08-09T22:03:25.598Z,41.92
2022-08-09T22:06:13.194Z,41.95
2022-08-09T22:08:58.956Z,41.80
2022-08-09T22:12:06.516Z,42.06
2022-08-09T22:14:52.030Z,42.13
2022-08-09T22:17:38.394Z,41.98
2022-08-09T22:20:34.724Z,42.12
2022-08-09T22:23:20.447Z,42.18
2022-08-09T22:26:23.367Z,42.19
2022-08-09T22:29:16.933Z,42.18
2022-08-09T22:32:04.464Z,42.36
2022-08-09T22:35:02.695Z,42.26
2022-08-09T22:38:07.398Z,42.29
2022-08-09T22:40:57.398Z,42.34
2022-08-09T22:44:03.670Z,42.41
2022-08-09T22:48:13.476Z,42.54
2022-08-09T22:49:56.992Z,42.46
2022-08-09T22:52:43.565Z,42.61
2022-08-09T22:56:06.491Z,42.72
2022-08-09T22:58:36.427Z,42.77
2022-08-09T23:01:22.245Z,42.72
2022-08-09T23:04:08.418Z,42.81
2022-08-09T23:07:13.901Z,42.93
2022-08-09T23:10:00.351Z,42.99
2022-08-09T23:12:46.917Z,43.01
2022-08-09T23:15:32.816Z,43.12
2022-08-09T23:18:18.549Z,43.19
2022-08-09T23:21:04.786Z,43.13
2022-08-09T23:24:05.536Z,43.40
2022-08-09T23:26:52.998Z,43.34
2022-08-09T23:29:38.750Z,43.27
2022-08-09T23:32:24.654Z,43.41
2022-08-09T23:35:10.229Z,43.48
2022-08-09T23:37:56.129Z,43.48
2022-08-09T23:40:42.235Z,43.55
2022-08-09T23:43:28.206Z,43.71
2022-08-09T23:46:13.996Z,43.88
2022-08-09T23:49:00.424Z,43.85
2022-08-09T23:51:46.416Z,43.77
2022-08-09T23:54:32.206Z,44.05
2022-08-09T23:57:17.917Z,44.01
